Castlewood, South Dakota
Current Conditions -  °F | °C
As of 2:53 AM on Saturday 25 Oct 2014 (Local Time) from KATY Reporting Station
Broken Clouds Broken Clouds  
Wind Chill: 53°   Ceiling: 12000
Heat Index: 53°   Visibility: 10mi
Dew Point: 38°   Wind: 6mph
Humidity: 57%   Direction: 320°NW
Pressure: 30.06"   Gusts: NA
Location:  44.72°N, 97.03°W
Report Text: KATY 250753Z AUTO 32005KT 10SM BKN120 12/03 A3006 RMK AO2 SLP176 T01170033 $
Loading
Personal Weather Stations






























Interactive Weather Map
Tropical Storm Tracking
New forecast layout! Learn more

10-Day Weather Forecast

Advertisements
Track Severe Weather on mobile